Time;durP1;ratioP1;P1;durP2;ratioP2;P2;SDS_P1;SDS_P2;PMS_P1;PMS_P2;Temp;Humidity;BMP_temperature;BMP_pressure;BME280_temperature;BME280_humidity;BME280_pressure;Samples;Min_cycle;Max_cycle;Signal;HPM_P1;HPM_P2
2023/06/09 00:01:15;;;;;;;577.20;549.17;;;12.60;82.50;;;;;;5037888;28;20033;-86
2023/06/09 00:03:40;;;;;;;568.13;541.33;;;12.70;82.30;;;;;;5038730;28;20440;-85
2023/06/09 00:06:10;;;;;;;563.75;537.10;;;12.70;82.50;;;;;;5039230;28;20111;-86
2023/06/09 00:08:36;;;;;;;568.28;541.60;;;12.40;82.90;;;;;;5042393;28;20033;-88
2023/06/09 00:11:01;;;;;;;519.67;495.73;;;12.30;82.80;;;;;;5035504;28;20044;-86
2023/06/09 00:13:27;;;;;;;510.38;487.67;;;12.30;82.40;;;;;;5040076;28;20033;-85
2023/06/09 00:15:53;;;;;;;518.55;495.40;;;12.30;82.90;;;;;;5024742;28;20074;-85
2023/06/09 00:18:19;;;;;;;526.75;502.45;;;12.10;84.40;;;;;;5032063;28;20038;-85
2023/06/09 00:20:45;;;;;;;537.05;513.22;;;12.20;85.00;;;;;;5041975;28;20053;-86
2023/06/09 00:23:13;;;;;;;496.60;474.20;;;12.20;84.80;;;;;;5033820;28;20040;-85
2023/06/09 00:25:39;;;;;;;503.15;480.48;;;12.20;87.00;;;;;;5033316;28;20070;-86
2023/06/09 00:28:04;;;;;;;516.00;492.63;;;12.30;86.90;;;;;;5039936;28;20029;-86
2023/06/09 00:30:30;;;;;;;512.83;489.27;;;12.40;88.20;;;;;;5039193;28;20033;-87
2023/06/09 00:32:56;;;;;;;497.02;474.80;;;12.40;88.00;;;;;;5036019;28;20171;-86
2023/06/09 00:35:22;;;;;;;554.35;528.55;;;12.60;88.80;;;;;;5036276;28;20038;-87
2023/06/09 00:37:48;;;;;;;540.65;516.25;;;12.50;87.30;;;;;;5036619;28;20048;-87
2023/06/09 00:40:15;;;;;;;536.67;512.90;;;12.20;84.40;;;;;;5036547;28;20023;-88
2023/06/09 00:42:40;;;;;;;517.03;493.98;;;12.00;84.60;;;;;;5033265;28;20072;-86
2023/06/09 00:45:07;;;;;;;547.78;522.30;;;12.00;85.30;;;;;;5036915;28;20765;-87
2023/06/09 00:47:32;;;;;;;529.38;505.08;;;12.00;87.00;;;;;;5034341;28;20037;-87
2023/06/09 00:49:58;;;;;;;538.55;513.67;;;12.00;86.90;;;;;;5031522;28;20048;-87
2023/06/09 00:52:26;;;;;;;530.65;506.95;;;12.10;88.00;;;;;;5037939;28;20041;-87
2023/06/09 00:54:52;;;;;;;522.42;498.55;;;12.20;88.40;;;;;;5036276;28;20040;-88
2023/06/09 00:57:19;;;;;;;553.78;527.78;;;12.20;88.90;;;;;;5035956;28;20028;-87
2023/06/09 00:59:44;;;;;;;520.55;497.48;;;12.10;88.30;;;;;;5039533;28;20060;-89
2023/06/09 01:02:12;;;;;;;541.42;516.45;;;11.80;88.90;;;;;;5035594;28;20052;-88
2023/06/09 01:04:40;;;;;;;568.92;541.92;;;11.70;87.40;;;;;;5037538;28;20040;-87
2023/06/09 01:07:17;;;;;;;593.83;566.17;;;11.60;87.50;;;;;;5040861;28;20025;-88
2023/06/09 01:09:45;;;;;;;571.38;544.00;;;11.50;89.00;;;;;;5031537;28;20105;-88
2023/06/09 01:12:19;;;;;;;560.15;533.85;;;11.50;90.60;;;;;;5037834;28;20048;-87
2023/06/09 01:14:58;;;;;;;569.67;542.50;;;11.60;90.90;;;;;;5035047;28;20033;-87
2023/06/09 01:17:27;;;;;;;566.45;540.28;;;11.70;90.80;;;;;;5036088;28;20034;-86
2023/06/09 01:19:57;;;;;;;563.58;537.08;;;11.70;90.70;;;;;;5038844;28;20034;-87
2023/06/09 01:22:35;;;;;;;522.78;498.38;;;11.80;90.50;;;;;;5033669;28;20788;-86
2023/06/09 01:25:25;;;;;;;519.85;495.23;;;11.80;90.70;;;;;;5032522;28;20044;-87
2023/06/09 01:27:57;;;;;;;452.90;433.00;;;11.70;90.30;;;;;;5034613;28;20021;-87
2023/06/09 01:30:29;;;;;;;479.00;457.83;;;11.70;90.40;;;;;;5039715;28;20033;-88
2023/06/09 01:32:59;;;;;;;479.42;457.95;;;11.60;90.30;;;;;;5036545;28;20088;-87
2023/06/09 01:35:26;;;;;;;475.73;454.75;;;11.70;90.50;;;;;;5038872;28;20142;-87
2023/06/09 01:37:53;;;;;;;479.30;458.52;;;11.60;90.90;;;;;;5035051;28;20044;-87
2023/06/09 01:40:19;;;;;;;480.92;459.25;;;11.50;91.10;;;;;;5036289;28;20100;-88
2023/06/09 01:42:45;;;;;;;483.73;461.90;;;11.60;90.90;;;;;;5032841;28;20026;-87
2023/06/09 01:45:11;;;;;;;453.30;433.17;;;11.50;90.80;;;;;;5038981;28;20479;-87
2023/06/09 01:47:37;;;;;;;468.15;447.83;;;11.50;90.80;;;;;;5035869;28;20044;-88
2023/06/09 01:50:36;;;;;;;453.33;433.88;;;11.40;90.70;;;;;;5035778;28;20091;-87
2023/06/09 01:53:07;;;;;;;423.42;405.77;;;11.30;90.60;;;;;;5033843;28;20033;-87
2023/06/09 01:55:38;;;;;;;428.88;410.33;;;11.30;90.80;;;;;;5032003;28;20046;-89
2023/06/09 01:58:06;;;;;;;442.58;424.10;;;11.30;91.20;;;;;;5042237;28;20029;-88
2023/06/09 02:00:32;;;;;;;471.60;451.05;;;11.30;91.30;;;;;;5033600;28;20029;-87
2023/06/09 02:03:00;;;;;;;426.92;409.20;;;11.30;91.30;;;;;;5039385;28;20029;-89
2023/06/09 02:05:28;;;;;;;460.80;440.95;;;11.30;91.20;;;;;;5020599;28;20045;-87
2023/06/09 02:07:54;;;;;;;444.75;425.80;;;11.10;91.10;;;;;;5032555;28;20021;-88
2023/06/09 02:10:21;;;;;;;472.77;452.35;;;11.00;90.60;;;;;;5042170;28;20039;-87
2023/06/09 02:12:47;;;;;;;441.90;423.05;;;10.90;90.50;;;;;;5034380;28;20161;-86
2023/06/09 02:15:12;;;;;;;446.42;427.33;;;11.00;90.70;;;;;;5029456;28;20116;-87
2023/06/09 02:17:39;;;;;;;441.17;421.65;;;11.00;90.80;;;;;;5034108;28;20576;-87
2023/06/09 02:20:08;;;;;;;444.05;425.20;;;11.00;91.10;;;;;;5019831;28;20579;-88
2023/06/09 02:22:35;;;;;;;443.20;424.02;;;11.10;91.40;;;;;;5032814;28;20080;-86
2023/06/09 02:25:01;;;;;;;466.48;446.35;;;11.10;91.70;;;;;;5036649;28;20033;-88
2023/06/09 02:27:27;;;;;;;447.65;427.58;;;11.10;91.70;;;;;;5036097;28;20033;-87
2023/06/09 02:29:53;;;;;;;397.60;380.48;;;11.00;91.50;;;;;;5044621;28;20114;-87
2023/06/09 02:32:19;;;;;;;438.45;419.08;;;11.10;92.70;;;;;;5039500;28;20036;-86
2023/06/09 02:34:45;;;;;;;431.60;412.77;;;11.20;93.10;;;;;;5035428;28;20110;-86
2023/06/09 02:37:11;;;;;;;511.05;487.05;;;11.30;94.20;;;;;;5037435;28;20473;-87
2023/06/09 02:39:37;;;;;;;500.63;476.08;;;11.20;94.30;;;;;;5040745;28;20029;-86
2023/06/09 02:42:03;;;;;;;380.45;363.30;;;11.20;94.70;;;;;;5026149;28;20022;-88
2023/06/09 02:44:31;;;;;;;399.23;381.52;;;11.20;95.10;;;;;;5031415;28;20025;-87
2023/06/09 02:46:58;;;;;;;414.90;396.05;;;11.10;95.10;;;;;;5042698;28;20033;-87
2023/06/09 02:49:24;;;;;;;319.52;305.45;;;11.00;95.00;;;;;;5041128;28;20076;-87
2023/06/09 02:51:49;;;;;;;291.08;278.55;;;11.00;95.60;;;;;;5037273;28;20064;-86
2023/06/09 02:54:15;;;;;;;226.57;217.23;;;11.00;95.60;;;;;;5033068;28;20455;-86
2023/06/09 02:56:41;;;;;;;264.88;253.80;;;11.00;95.80;;;;;;5038229;28;20106;-87
2023/06/09 02:59:07;;;;;;;253.85;243.38;;;11.00;95.80;;;;;;5035782;28;20088;-86
2023/06/09 03:01:35;;;;;;;262.67;251.55;;;10.90;96.00;;;;;;5034359;28;20392;-87
2023/06/09 03:04:06;;;;;;;256.67;246.20;;;10.90;96.20;;;;;;5038651;28;20392;-86
2023/06/09 03:06:33;;;;;;;242.07;231.50;;;10.90;96.40;;;;;;5033378;28;20033;-86
2023/06/09 03:09:01;;;;;;;234.18;224.25;;;10.90;96.50;;;;;;5040611;28;20551;-87
2023/06/09 03:11:26;;;;;;;210.82;202.13;;;11.00;97.00;;;;;;5035204;28;20496;-86
2023/06/09 03:13:52;;;;;;;201.73;193.30;;;11.10;96.90;;;;;;5039109;28;20038;-87
2023/06/09 03:16:17;;;;;;;130.82;125.07;;;11.20;97.40;;;;;;5039544;28;20493;-87
2023/06/09 03:18:43;;;;;;;352.48;336.55;;;11.10;97.00;;;;;;5036246;28;20025;-87
2023/06/09 03:21:09;;;;;;;353.10;336.95;;;11.10;96.90;;;;;;5040028;28;20087;-87
2023/06/09 03:23:35;;;;;;;288.35;275.25;;;11.10;97.20;;;;;;5038567;28;20025;-87
2023/06/09 03:26:01;;;;;;;326.65;312.58;;;11.10;97.20;;;;;;5033249;28;20500;-86
2023/06/09 03:28:26;;;;;;;306.00;292.33;;;11.10;97.10;;;;;;5042297;28;20040;-87
2023/06/09 03:30:54;;;;;;;280.83;268.13;;;11.10;97.30;;;;;;5036053;28;20045;-87
2023/06/09 03:33:20;;;;;;;309.40;295.50;;;11.10;97.50;;;;;;5038156;28;20051;-88
2023/06/09 03:35:48;;;;;;;286.58;274.35;;;11.20;97.50;;;;;;5042136;28;20485;-86
2023/06/09 03:38:13;;;;;;;204.65;196.10;;;11.20;97.40;;;;;;5035825;28;20397;-86
2023/06/09 03:40:39;;;;;;;196.50;188.60;;;11.20;97.50;;;;;;5040399;28;20025;-87
2023/06/09 03:43:07;;;;;;;216.68;207.45;;;11.30;97.30;;;;;;5036667;28;20507;-87
2023/06/09 03:45:34;;;;;;;170.90;163.60;;;11.20;97.20;;;;;;5034471;28;20025;-87
2023/06/09 03:48:00;;;;;;;213.45;204.35;;;11.30;97.20;;;;;;5041128;28;20033;-86
2023/06/09 03:50:26;;;;;;;174.43;167.05;;;11.30;96.90;;;;;;5036740;28;20041;-86
2023/06/09 03:52:52;;;;;;;201.73;192.98;;;11.40;97.00;;;;;;5038157;28;20056;-88
2023/06/09 03:55:22;;;;;;;191.20;182.98;;;11.40;96.80;;;;;;5038788;28;20496;-87
2023/06/09 03:57:48;;;;;;;226.30;217.00;;;11.40;96.80;;;;;;5034502;28;20064;-87
2023/06/09 04:00:16;;;;;;;213.20;204.20;;;11.30;96.90;;;;;;5036777;28;20029;-86
2023/06/09 04:02:42;;;;;;;189.70;181.75;;;11.40;97.10;;;;;;5038267;28;20393;-86
2023/06/09 04:05:07;;;;;;;200.45;191.88;;;11.40;96.80;;;;;;5032374;28;20040;-86
2023/06/09 04:07:33;;;;;;;189.05;181.20;;;11.50;96.80;;;;;;5032973;28;20125;-87
2023/06/09 04:09:59;;;;;;;166.75;159.75;;;11.50;96.80;;;;;;5037604;28;20045;-87
2023/06/09 04:12:25;;;;;;;154.70;148.15;;;11.70;96.40;;;;;;5036699;28;20161;-87
2023/06/09 04:14:51;;;;;;;149.40;143.13;;;11.80;96.50;;;;;;5038998;28;20101;-87
2023/06/09 04:17:17;;;;;;;164.13;157.13;;;11.80;95.90;;;;;;5031167;28;20397;-87
2023/06/09 04:19:42;;;;;;;123.03;117.90;;;12.00;95.80;;;;;;5038356;28;20022;-86
2023/06/09 04:22:10;;;;;;;123.65;118.22;;;12.10;95.10;;;;;;5037267;28;20057;-85
2023/06/09 04:24:36;;;;;;;161.38;154.63;;;12.10;94.90;;;;;;5034922;28;20783;-86
2023/06/09 04:27:03;;;;;;;166.48;159.07;;;12.10;95.10;;;;;;5041189;28;20044;-86
2023/06/09 04:29:32;;;;;;;151.30;144.40;;;12.20;95.10;;;;;;5015341;28;20619;-87
2023/06/09 04:32:01;;;;;;;148.32;141.90;;;12.20;95.10;;;;;;5044578;28;20040;-87
2023/06/09 04:34:28;;;;;;;114.20;109.38;;;12.30;95.00;;;;;;5035363;28;20799;-87
2023/06/09 04:36:55;;;;;;;130.82;124.97;;;12.50;94.70;;;;;;5036184;28;20120;-86
2023/06/09 04:39:24;;;;;;;128.95;123.43;;;12.50;94.30;;;;;;5038911;28;20022;-87
2023/06/09 04:41:52;;;;;;;127.00;121.38;;;12.70;94.20;;;;;;5031519;28;20136;-87
2023/06/09 04:44:18;;;;;;;105.82;101.15;;;12.80;93.90;;;;;;5036169;28;20057;-86
2023/06/09 04:46:46;;;;;;;99.38;95.00;;;12.70;93.90;;;;;;5041234;28;20123;-86
2023/06/09 04:49:12;;;;;;;122.72;117.28;;;12.90;93.40;;;;;;5037613;28;20083;-86
2023/06/09 04:51:41;;;;;;;128.50;122.85;;;13.00;93.50;;;;;;5046910;28;20037;-87
2023/06/09 04:54:09;;;;;;;98.22;93.75;;;13.00;93.40;;;;;;5038573;28;20095;-87
2023/06/09 04:56:36;;;;;;;104.55;99.63;;;13.10;93.60;;;;;;5039177;28;20037;-87
2023/06/09 04:59:03;;;;;;;96.50;91.85;;;13.20;93.40;;;;;;5038241;28;20037;-87
2023/06/09 05:01:29;;;;;;;95.88;91.45;;;13.30;92.60;;;;;;5038459;28;20036;-86
2023/06/09 05:03:55;;;;;;;100.45;96.07;;;13.40;92.40;;;;;;5037565;28;20152;-85
2023/06/09 05:06:21;;;;;;;95.75;91.30;;;13.40;92.40;;;;;;5041187;28;20033;-85
2023/06/09 05:08:48;;;;;;;100.35;95.60;;;13.40;92.50;;;;;;5039995;28;20086;-86
2023/06/09 05:11:14;;;;;;;85.07;81.07;;;13.60;92.30;;;;;;5039265;28;20067;-86
2023/06/09 05:13:40;;;;;;;92.32;87.78;;;13.60;92.20;;;;;;5032999;28;20058;-86
2023/06/09 05:16:05;;;;;;;105.57;100.75;;;13.70;92.10;;;;;;5038767;28;20041;-85
2023/06/09 05:18:32;;;;;;;91.30;87.00;;;13.80;91.60;;;;;;5016460;28;20036;-85
2023/06/09 05:20:58;;;;;;;95.47;91.22;;;13.80;91.90;;;;;;5041592;28;20049;-85
2023/06/09 05:23:23;;;;;;;73.35;69.50;;;13.80;92.00;;;;;;5037352;28;20026;-86
2023/06/09 05:25:49;;;;;;;84.53;80.47;;;14.10;91.10;;;;;;5034875;28;20121;-85
2023/06/09 05:28:15;;;;;;;87.75;83.68;;;14.10;91.30;;;;;;5034520;28;20029;-86
2023/06/09 05:30:41;;;;;;;94.82;90.13;;;14.20;90.80;;;;;;5035381;28;20152;-85
2023/06/09 05:33:07;;;;;;;104.38;99.72;;;14.30;90.60;;;;;;5035986;28;20096;-86
2023/06/09 05:35:32;;;;;;;92.28;87.90;;;14.50;91.00;;;;;;5039137;28;20072;-86
2023/06/09 05:37:58;;;;;;;106.80;102.10;;;14.50;90.20;;;;;;5037555;28;20037;-85
2023/06/09 05:40:24;;;;;;;116.47;111.38;;;14.60;90.70;;;;;;5034532;28;20121;-86
2023/06/09 05:42:49;;;;;;;109.00;104.18;;;14.70;90.40;;;;;;5034095;28;20405;-85
2023/06/09 05:45:15;;;;;;;116.60;111.28;;;14.90;90.20;;;;;;5036803;28;20057;-85
2023/06/09 05:47:41;;;;;;;98.45;93.88;;;14.90;89.40;;;;;;5030951;28;20500;-85
2023/06/09 05:50:07;;;;;;;117.82;112.60;;;15.00;88.40;;;;;;5039021;28;20749;-86
2023/06/09 05:52:32;;;;;;;132.75;126.80;;;15.00;89.10;;;;;;5037099;28;20596;-87
2023/06/09 05:55:00;;;;;;;130.68;124.80;;;15.10;88.70;;;;;;5012422;28;20445;-86
2023/06/09 05:57:29;;;;;;;91.47;87.43;;;15.10;89.10;;;;;;5034097;28;20029;-86
2023/06/09 05:59:56;;;;;;;105.40;100.65;;;15.00;88.40;;;;;;5038456;28;20527;-85
2023/06/09 06:02:23;;;;;;;110.25;105.43;;;15.00;88.50;;;;;;5034989;28;20492;-85
2023/06/09 06:04:48;;;;;;;138.07;132.02;;;15.10;88.50;;;;;;5030824;28;20048;-85
2023/06/09 06:07:15;;;;;;;113.85;108.95;;;15.30;88.30;;;;;;5035614;28;20492;-85
2023/06/09 06:09:40;;;;;;;124.72;119.20;;;15.20;88.00;;;;;;5015955;28;20026;-86
2023/06/09 06:12:06;;;;;;;174.45;167.30;;;15.30;88.30;;;;;;5031974;28;20044;-85
2023/06/09 06:14:32;;;;;;;170.18;163.18;;;15.40;88.70;;;;;;5033531;28;20108;-86
2023/06/09 06:16:57;;;;;;;164.02;156.98;;;15.50;89.40;;;;;;5036678;28;20501;-86
2023/06/09 06:19:25;;;;;;;151.32;144.85;;;15.70;88.60;;;;;;5038025;28;20025;-86
2023/06/09 06:21:51;;;;;;;154.77;147.75;;;15.90;87.00;;;;;;5044377;28;20076;-86
2023/06/09 06:24:17;;;;;;;149.98;143.45;;;16.10;85.50;;;;;;5036127;28;20056;-85
2023/06/09 06:26:42;;;;;;;168.88;161.68;;;16.10;85.90;;;;;;5035261;28;20029;-85
2023/06/09 06:29:08;;;;;;;168.77;161.63;;;16.10;85.40;;;;;;5039377;28;20033;-85
2023/06/09 06:31:34;;;;;;;169.38;162.30;;;16.40;85.50;;;;;;5049972;28;20084;-86
2023/06/09 06:34:00;;;;;;;199.98;191.65;;;16.40;84.00;;;;;;5039083;28;20446;-87
2023/06/09 06:36:26;;;;;;;198.27;190.15;;;16.60;83.80;;;;;;5039359;28;20044;-86
2023/06/09 06:38:52;;;;;;;144.95;139.07;;;16.60;84.00;;;;;;5034394;28;20120;-86
2023/06/09 06:41:17;;;;;;;163.35;156.70;;;16.80;82.40;;;;;;5043297;28;20128;-87
2023/06/09 06:43:43;;;;;;;223.13;214.10;;;16.90;81.60;;;;;;5037461;28;20037;-86
2023/06/09 06:46:12;;;;;;;215.75;207.20;;;16.90;82.80;;;;;;5037547;28;20029;-86
2023/06/09 06:48:40;;;;;;;192.05;184.38;;;16.90;83.30;;;;;;5036796;28;20072;-86
2023/06/09 06:51:07;;;;;;;189.55;181.95;;;17.10;80.70;;;;;;5030755;28;20033;-86
2023/06/09 06:53:35;;;;;;;205.80;197.55;;;17.10;80.90;;;;;;5038852;28;20451;-86
2023/06/09 06:56:00;;;;;;;95.15;90.88;;;17.30;80.30;;;;;;5039968;28;20028;-86
2023/06/09 06:58:28;;;;;;;233.00;223.88;;;17.40;78.30;;;;;;5036195;28;20449;-86
2023/06/09 07:00:55;;;;;;;224.95;215.95;;;17.50;80.10;;;;;;5040324;28;20032;-85
2023/06/09 07:03:23;;;;;;;208.70;200.60;;;17.70;80.20;;;;;;5034367;28;20033;-86
2023/06/09 07:05:50;;;;;;;228.85;219.65;;;17.70;77.80;;;;;;5036270;28;20029;-86
2023/06/09 07:08:15;;;;;;;205.20;197.27;;;17.70;77.90;;;;;;5041133;28;20033;-86
2023/06/09 07:10:41;;;;;;;239.25;229.63;;;17.70;77.70;;;;;;5035131;28;20053;-85
2023/06/09 07:13:06;;;;;;;228.13;219.40;;;17.90;78.00;;;;;;5024151;28;20393;-85
2023/06/09 07:15:32;;;;;;;221.50;212.93;;;18.00;77.80;;;;;;5038601;28;20057;-85
2023/06/09 07:17:58;;;;;;;166.57;159.70;;;18.20;76.30;;;;;;5036156;28;20692;-86
2023/06/09 07:20:24;;;;;;;338.02;323.40;;;18.30;75.10;;;;;;5041917;28;20088;-86
2023/06/09 07:22:51;;;;;;;234.40;225.40;;;18.10;76.30;;;;;;5037983;28;20034;-87
2023/06/09 07:25:17;;;;;;;237.80;228.63;;;18.20;76.50;;;;;;5043534;28;20032;-86
2023/06/09 07:27:43;;;;;;;262.02;251.73;;;18.50;75.40;;;;;;5041101;28;20041;-86
2023/06/09 07:30:09;;;;;;;173.27;166.15;;;18.80;75.60;;;;;;5035008;28;20057;-86
2023/06/09 07:32:35;;;;;;;267.33;257.20;;;18.90;72.60;;;;;;5039859;28;20400;-86
2023/06/09 07:35:01;;;;;;;235.57;226.65;;;18.90;72.70;;;;;;5036329;28;20115;-86
2023/06/09 07:37:27;;;;;;;247.02;237.82;;;19.30;74.00;;;;;;5036736;28;20766;-86
2023/06/09 07:39:53;;;;;;;248.93;239.13;;;19.40;73.60;;;;;;5041856;28;20037;-86
2023/06/09 07:42:19;;;;;;;279.40;268.83;;;19.40;71.40;;;;;;5033608;28;20036;-86
2023/06/09 07:44:45;;;;;;;236.93;227.57;;;19.60;70.60;;;;;;5023367;28;20025;-87
2023/06/09 07:47:10;;;;;;;304.80;291.95;;;19.60;68.40;;;;;;5022368;28;20041;-86
2023/06/09 07:49:36;;;;;;;278.13;267.38;;;19.80;69.40;;;;;;5035000;28;20033;-86
2023/06/09 07:52:06;;;;;;;249.23;239.48;;;20.20;67.90;;;;;;5040926;28;20045;-86
2023/06/09 07:54:31;;;;;;;301.45;289.80;;;20.00;66.50;;;;;;5038866;28;20036;-87
2023/06/09 07:56:57;;;;;;;290.13;278.85;;;20.00;68.60;;;;;;5036962;28;20037;-85
2023/06/09 07:59:23;;;;;;;285.15;274.20;;;20.30;67.30;;;;;;5039102;28;20524;-86
2023/06/09 08:01:48;;;;;;;321.88;309.20;;;20.60;69.20;;;;;;5036618;28;20072;-86
2023/06/09 08:04:14;;;;;;;298.08;286.60;;;20.60;66.70;;;;;;5036652;28;20087;-86
2023/06/09 08:06:40;;;;;;;301.15;288.88;;;20.60;66.50;;;;;;5040309;28;20026;-86
2023/06/09 08:09:07;;;;;;;329.98;316.65;;;20.70;64.30;;;;;;5035170;28;20033;-86
2023/06/09 08:11:32;;;;;;;454.08;434.75;;;20.90;64.10;;;;;;5043323;28;20028;-86
2023/06/09 08:13:58;;;;;;;558.78;530.17;;;20.90;63.10;;;;;;5031647;28;20508;-85
2023/06/09 08:16:24;;;;;;;543.85;518.50;;;21.20;63.00;;;;;;5021346;28;20476;-85
2023/06/09 08:18:49;;;;;;;480.45;458.55;;;21.20;62.30;;;;;;5040483;28;20034;-86
2023/06/09 08:21:17;;;;;;;489.95;468.13;;;21.40;63.10;;;;;;5030823;28;20049;-86
2023/06/09 08:23:45;;;;;;;607.22;578.08;;;21.50;64.00;;;;;;5043477;28;20024;-87
2023/06/09 08:26:11;;;;;;;723.78;684.03;;;21.50;60.00;;;;;;5035464;28;20045;-86
2023/06/09 08:28:38;;;;;;;688.20;651.90;;;21.30;60.10;;;;;;5035832;28;20037;-86
2023/06/09 08:31:04;;;;;;;733.67;693.63;;;21.50;60.70;;;;;;5043656;28;20033;-86
2023/06/09 08:33:34;;;;;;;818.75;768.33;;;21.90;59.40;;;;;;5034972;28;20061;-87
2023/06/09 08:36:04;;;;;;;838.45;785.70;;;21.80;58.10;;;;;;5038493;28;20029;-88
2023/06/09 08:38:33;;;;;;;863.55;806.85;;;22.20;59.40;;;;;;5038922;28;20032;-87
2023/06/09 08:41:10;;;;;;;853.53;798.10;;;22.00;56.20;;;;;;5028842;28;20022;-85
2023/06/09 08:43:36;;;;;;;875.38;817.15;;;22.10;58.00;;;;;;5042443;28;20021;-86
2023/06/09 08:46:05;;;;;;;884.50;827.40;;;22.40;57.40;;;;;;5034401;28;20048;-86
2023/06/09 08:48:32;;;;;;;876.78;819.10;;;22.60;54.40;;;;;;5035963;28;20029;-86
2023/06/09 08:50:58;;;;;;;880.70;823.40;;;22.50;56.00;;;;;;5037183;28;20551;-86
2023/06/09 08:53:25;;;;;;;910.53;848.25;;;22.70;54.10;;;;;;5033048;28;20033;-87
2023/06/09 08:55:52;;;;;;;929.63;865.28;;;22.80;55.30;;;;;;5037411;28;20033;-85
2023/06/09 08:58:18;;;;;;;902.22;837.22;;;23.00;54.20;;;;;;5019613;28;20405;-86
2023/06/09 09:00:44;;;;;;;944.33;877.85;;;23.00;54.00;;;;;;5035135;28;20040;-86
2023/06/09 09:03:09;;;;;;;1057.47;971.72;;;23.00;51.50;;;;;;5041975;28;20373;-86
2023/06/09 09:05:35;;;;;;;1006.60;928.40;;;23.30;51.80;;;;;;5035668;28;20028;-86
2023/06/09 09:08:01;;;;;;;751.65;689.28;;;23.60;53.10;;;;;;5034837;28;20112;-87
2023/06/09 09:10:28;;;;;;;539.10;485.83;;;23.60;51.20;;;;;;5038231;28;20519;-86
2023/06/09 09:12:58;;;;;;;1999.90;999.90;;;23.30;49.90;;;;;;5032603;28;20130;-85
2023/06/09 09:15:25;;;;;;;1999.90;999.90;;;23.30;50.00;;;;;;5038598;28;20037;-86
2023/06/09 09:17:51;;;;;;;1999.90;999.90;;;23.50;49.70;;;;;;5016947;28;20080;-87
2023/06/09 09:20:17;;;;;;;1999.90;999.90;;;23.50;48.30;;;;;;5034953;28;20060;-86
2023/06/09 09:22:48;;;;;;;1999.90;999.90;;;23.60;49.40;;;;;;5036352;28;20092;-86
2023/06/09 09:25:27;;;;;;;1999.90;999.90;;;24.20;49.90;;;;;;5036456;28;20021;-87
2023/06/09 09:28:05;;;;;;;1999.90;999.90;;;24.20;49.20;;;;;;5039069;28;20066;-83
2023/06/09 09:30:51;;;;;;;1999.90;999.90;;;24.00;47.00;;;;;;5037456;28;20040;-84
2023/06/09 09:33:20;;;;;;;1999.90;999.90;;;23.90;47.60;;;;;;5034810;28;20036;-86
2023/06/09 09:35:53;;;;;;;1999.90;999.90;;;24.00;48.50;;;;;;5042491;28;20373;-84
2023/06/09 09:38:24;;;;;;;1999.90;999.90;;;24.20;48.20;;;;;;5039834;28;20032;-83
2023/06/09 09:40:52;;;;;;;1999.90;999.90;;;24.40;46.70;;;;;;5039202;28;20519;-84
2023/06/09 09:43:19;;;;;;;1999.90;999.90;;;23.80;47.10;;;;;;5039536;28;20026;-85
2023/06/09 09:45:50;;;;;;;1999.90;999.90;;;24.20;46.00;;;;;;5034223;28;20532;-84
2023/06/09 09:48:19;;;;;;;1999.90;999.90;;;24.20;46.30;;;;;;5027538;28;20041;-84
2023/06/09 09:50:48;;;;;;;1999.90;999.90;;;24.30;49.60;;;;;;5038564;28;20029;-84
2023/06/09 09:53:14;;;;;;;1999.90;999.90;;;24.60;47.60;;;;;;5035843;28;20113;-84
2023/06/09 09:55:47;;;;;;;1999.90;999.90;;;25.00;47.20;;;;;;5037285;28;20059;-84
2023/06/09 09:58:14;;;;;;;1999.90;999.90;;;25.00;46.30;;;;;;5033582;28;20052;-84
2023/06/09 10:00:44;;;;;;;1999.90;999.90;;;24.80;43.50;;;;;;5022759;28;20029;-85
2023/06/09 10:03:14;;;;;;;1999.90;999.90;;;24.50;44.30;;;;;;5034940;28;20456;-84
2023/06/09 10:05:48;;;;;;;1999.90;999.90;;;24.50;45.90;;;;;;5032180;28;20038;-85
2023/06/09 10:08:28;;;;;;;1999.90;999.90;;;24.60;47.00;;;;;;5039773;28;20044;-85
2023/06/09 10:10:59;;;;;;;1999.90;999.90;;;24.60;45.20;;;;;;5034499;28;20040;-85
2023/06/09 10:13:27;;;;;;;1999.90;999.90;;;25.00;45.20;;;;;;5042103;28;20095;-85
2023/06/09 10:15:59;;;;;;;1999.90;999.90;;;25.20;44.10;;;;;;5038906;28;20030;-85
2023/06/09 10:18:26;;;;;;;1999.90;999.90;;;25.70;43.70;;;;;;5016305;28;20033;-84
2023/06/09 10:20:53;;;;;;;1999.90;999.90;;;24.80;43.70;;;;;;5044479;28;20127;-85
2023/06/09 10:23:19;;;;;;;1999.90;999.90;;;24.10;48.20;;;;;;5036928;28;20108;-85
2023/06/09 10:25:49;;;;;;;1999.90;999.90;;;24.80;45.50;;;;;;5039502;28;20488;-85
2023/06/09 10:28:16;;;;;;;1999.90;999.90;;;25.30;43.10;;;;;;5039338;28;20025;-84
2023/06/09 10:30:43;;;;;;;1999.90;999.90;;;25.70;41.90;;;;;;5036472;28;20033;-84
2023/06/09 10:33:16;;;;;;;1999.90;999.90;;;25.40;42.30;;;;;;5045522;28;20072;-85
2023/06/09 10:35:45;;;;;;;1999.90;999.90;;;25.60;44.90;;;;;;5039679;28;20119;-84
2023/06/09 10:38:31;;;;;;;1999.90;999.90;;;25.20;43.10;;;;;;5035685;28;20025;-84
2023/06/09 10:41:15;;;;;;;1999.90;999.90;;;26.10;42.40;;;;;;5035506;28;20017;-84
2023/06/09 10:44:05;;;;;;;1999.90;999.90;;;26.50;40.40;;;;;;5028031;28;20034;-86
2023/06/09 10:46:42;;;;;;;1999.90;999.90;;;26.60;41.00;;;;;;5039971;28;20033;-85
2023/06/09 10:49:37;;;;;;;1999.90;999.90;;;25.70;41.00;;;;;;5036734;28;20063;-84
2023/06/09 10:52:04;;;;;;;1999.90;999.90;;;26.00;42.00;;;;;;5042520;28;20116;-85
2023/06/09 10:54:32;;;;;;;1999.90;999.90;;;26.70;41.30;;;;;;5052823;28;20030;-85
2023/06/09 10:57:03;;;;;;;1999.90;999.90;;;27.20;38.60;;;;;;5037949;28;20286;-84
2023/06/09 10:59:30;;;;;;;1999.90;999.90;;;28.00;40.90;;;;;;5037712;28;20031;-84
2023/06/09 11:02:05;;;;;;;1999.90;999.90;;;28.00;36.70;;;;;;5038015;28;20028;-84
2023/06/09 11:04:45;;;;;;;1999.90;999.90;;;27.50;34.60;;;;;;5039482;28;20489;-84
2023/06/09 11:07:22;;;;;;;1999.90;999.90;;;28.30;31.50;;;;;;5030469;28;20029;-83
2023/06/09 11:09:48;;;;;;;1999.90;999.90;;;28.80;33.30;;;;;;5039412;28;20044;-84
2023/06/09 11:12:36;;;;;;;1999.90;999.90;;;29.60;30.20;;;;;;5040832;28;20075;-83
2023/06/09 11:15:03;;;;;;;1999.90;999.90;;;29.10;32.00;;;;;;5037753;28;20044;-84
2023/06/09 11:17:43;;;;;;;1999.90;999.90;;;29.50;33.50;;;;;;5047335;28;20053;-85
2023/06/09 11:20:08;;;;;;;1999.90;999.90;;;28.60;30.90;;;;;;5039613;28;20412;-86
2023/06/09 11:22:54;;;;;;;1999.90;999.90;;;28.80;33.90;;;;;;5044899;28;20477;-85
2023/06/09 11:25:20;;;;;;;1999.90;999.90;;;29.10;30.00;;;;;;5041569;28;20492;-85
2023/06/09 11:27:50;;;;;;;1999.90;999.90;;;29.10;31.50;;;;;;5034824;28;20034;-85
2023/06/09 11:30:20;;;;;;;1999.90;999.90;;;29.20;30.00;;;;;;5029131;28;20566;-85
2023/06/09 11:32:54;;;;;;;1999.90;999.90;;;29.80;31.50;;;;;;5046915;28;20493;-85
2023/06/09 11:35:29;;;;;;;1999.90;999.90;;;30.40;31.30;;;;;;5039337;28;20029;-85
2023/06/09 11:37:58;;;;;;;1999.90;999.90;;;29.70;29.40;;;;;;5040762;28;20024;-85
2023/06/09 11:40:31;;;;;;;1999.90;999.90;;;30.10;28.10;;;;;;5033336;28;20105;-85
2023/06/09 11:42:58;;;;;;;1999.90;999.90;;;30.50;28.30;;;;;;5036166;28;20036;-85
2023/06/09 11:45:25;;;;;;;1999.90;999.90;;;30.20;28.10;;;;;;5047503;28;20031;-85
2023/06/09 11:47:56;;;;;;;1999.90;999.90;;;30.40;28.00;;;;;;5033123;28;20030;-86
2023/06/09 11:50:24;;;;;;;1999.90;999.90;;;30.50;28.00;;;;;;5038723;28;20486;-85
2023/06/09 11:53:03;;;;;;;1999.90;999.90;;;31.30;27.70;;;;;;5020110;28;20555;-87
2023/06/09 11:55:29;;;;;;;1999.90;999.90;;;30.70;27.90;;;;;;5037031;28;20037;-85
2023/06/09 11:57:54;;;;;;;1999.90;999.90;;;31.30;28.30;;;;;;5018181;28;20068;-85
2023/06/09 12:00:25;;;;;;;1999.90;999.90;;;31.90;28.20;;;;;;5034918;28;20029;-86
2023/06/09 12:02:51;;;;;;;1999.90;999.90;;;32.30;25.70;;;;;;5043945;28;20048;-84
2023/06/09 12:05:17;;;;;;;1999.90;999.90;;;31.20;26.60;;;;;;5036948;28;20053;-85
2023/06/09 12:07:47;;;;;;;1999.90;999.90;;;31.30;28.10;;;;;;5038223;28;20566;-85
2023/06/09 12:10:17;;;;;;;1999.90;999.90;;;31.70;27.90;;;;;;5035681;28;20040;-85